Olivebridge, New York
Current Conditions -  °F | °C
As of 10:53 AM on Friday 28 Nov 2014 (Local Time) from KPOU Reporting Station
Clear Clear  
Wind Chill: 26°   Ceiling: Unl
Heat Index: 32°   Visibility: 10mi
Dew Point: 19°   Wind: 6mph
Humidity: 59%   Direction: 250°WSW
Pressure: 30.17"   Gusts: NA
Location:  41.93°N, 74.22°W
Report Text: KPOU 281553Z 25005KT 10SM CLR 00/M07 A3017 RMK AO2 SLP214 T00001072
Loading
Personal Weather Stations






























Interactive Weather Map New forecast layout! Learn more

10-Day Weather Forecast

Advertisements
Track Severe Weather on mobile